Arcola, Texas
Current Conditions -  °F | °C
As of 5:15 AM on Saturday 20 Dec 2014 (Local Time) from KAXH Reporting Station
Overcast Overcast  
Wind Chill: 40°   Ceiling: 600
Heat Index: 43°   Visibility: 10mi
Dew Point: 43°   Wind: 6mph
Humidity: 98%   Direction: 350°N
Pressure: 30.15"   Gusts: NA
Location:  29.4042°N, 95.4477°W
Report Text: KAXH 201115Z AUTO 35005KT 10SM OVC006 06/06 A3015 RMK AO2 T00630060
Loading
Personal Weather Stations






























Interactive Weather Map New forecast layout! Learn more

10-Day Weather Forecast

Advertisements
Track Severe Weather on mobile